createdAt,value
2023-02-12T00:01:29.071Z,7.89
2023-02-12T00:03:57.511Z,7.94
2023-02-12T00:06:26.494Z,7.98
2023-02-12T00:08:57.361Z,7.93
2023-02-12T00:11:27.916Z,7.91
2023-02-12T00:13:58.755Z,7.93
2023-02-12T00:16:28.934Z,7.72
2023-02-12T00:18:59.045Z,7.89
2023-02-12T00:21:27.677Z,7.97
2023-02-12T00:23:56.594Z,7.98
2023-02-12T00:26:25.170Z,7.90
2023-02-12T00:28:54.068Z,7.93
2023-02-12T00:31:26.611Z,7.86
2023-02-12T00:33:55.384Z,7.92
2023-02-12T00:36:25.422Z,7.98
2023-02-12T00:38:54.524Z,8.03
2023-02-12T00:41:23.442Z,7.94
2023-02-12T00:43:52.033Z,7.77
2023-02-12T00:46:20.872Z,7.76
2023-02-12T00:48:50.819Z,7.73
2023-02-12T00:51:18.803Z,7.72
2023-02-12T00:53:47.316Z,7.69
2023-02-12T00:56:15.713Z,7.71
2023-02-12T00:58:43.902Z,7.74
2023-02-12T01:01:12.502Z,7.70
2023-02-12T01:03:40.889Z,7.77
2023-02-12T01:06:10.597Z,7.72
2023-02-12T01:08:39.044Z,7.92
2023-02-12T01:11:07.947Z,7.91
2023-02-12T01:13:36.501Z,7.76
2023-02-12T01:16:12.872Z,7.65
2023-02-12T01:18:41.533Z,7.61
2023-02-12T01:21:16.849Z,7.60
2023-02-12T01:23:45.842Z,7.71
2023-02-12T01:26:14.924Z,7.76
2023-02-12T01:28:45.484Z,7.87
2023-02-12T01:31:15.657Z,7.86
2023-02-12T01:33:44.506Z,7.62
2023-02-12T01:36:14.099Z,7.68
2023-02-12T01:38:42.448Z,7.63
2023-02-12T01:41:13.832Z,7.55
2023-02-12T01:43:42.493Z,7.57
2023-02-12T01:46:14.701Z,7.65
2023-02-12T01:48:46.897Z,7.82
2023-02-12T01:51:21.282Z,7.80
2023-02-12T01:53:53.840Z,7.72
2023-02-12T01:56:23.836Z,7.61
2023-02-12T01:58:55.741Z,7.53
2023-02-12T02:01:29.473Z,7.54
2023-02-12T02:04:01.430Z,7.59
2023-02-12T02:06:35.460Z,7.71
2023-02-12T02:09:04.489Z,7.83
2023-02-12T02:11:50.302Z,7.95
2023-02-12T02:14:33.779Z,8.01
2023-02-12T02:17:21.662Z,8.06
2023-02-12T02:20:18.050Z,7.96
2023-02-12T02:22:56.327Z,7.91
2023-02-12T02:26:02.194Z,8.00
2023-02-12T02:28:59.440Z,8.02
2023-02-12T02:31:38.103Z,8.02
2023-02-12T02:34:13.564Z,8.14
2023-02-12T02:36:59.719Z,8.21
2023-02-12T02:39:35.226Z,8.19
2023-02-12T02:42:09.273Z,8.17
2023-02-12T02:44:43.540Z,8.27
2023-02-12T02:47:15.914Z,8.28
2023-02-12T02:49:47.734Z,8.36
2023-02-12T02:52:20.010Z,8.39
2023-02-12T02:54:52.368Z,8.39
2023-02-12T02:57:26.313Z,8.43
2023-02-12T02:59:59.620Z,8.46
2023-02-12T03:02:33.611Z,8.43
2023-02-12T03:05:06.100Z,8.32
2023-02-12T03:07:37.533Z,8.35
2023-02-12T03:10:11.938Z,8.35
2023-02-12T03:12:44.549Z,8.36
2023-02-12T03:15:18.661Z,8.38
2023-02-12T03:17:50.635Z,8.41
2023-02-12T03:20:22.348Z,8.46
2023-02-12T03:22:55.327Z,8.46
2023-02-12T03:25:27.807Z,8.44
2023-02-12T03:28:03.110Z,8.51
2023-02-12T03:30:40.149Z,8.29
2023-02-12T03:33:21.917Z,8.72
2023-02-12T03:35:58.475Z,8.79
2023-02-12T03:38:37.731Z,8.86
2023-02-12T03:41:10.917Z,8.77
2023-02-12T03:43:50.631Z,8.89
2023-02-12T03:46:24.412Z,8.81
2023-02-12T03:49:02.781Z,8.86
2023-02-12T03:51:36.279Z,8.94
2023-02-12T03:54:06.314Z,8.69
2023-02-12T03:56:42.850Z,8.79
2023-02-12T03:59:11.602Z,8.79
2023-02-12T04:01:39.989Z,8.84
2023-02-12T04:04:10.919Z,8.78
2023-02-12T04:06:39.636Z,8.71
2023-02-12T04:09:10.703Z,8.83
2023-02-12T04:11:51.141Z,8.87
2023-02-12T04:14:30.654Z,8.77
2023-02-12T04:17:04.693Z,8.80
2023-02-12T04:19:44.569Z,8.83
2023-02-12T04:22:34.303Z,8.91
2023-02-12T04:25:14.994Z,8.95
2023-02-12T04:27:54.075Z,8.93
2023-02-12T04:30:25.660Z,9.00
2023-02-12T04:32:58.448Z,8.94
2023-02-12T04:35:33.560Z,8.98
2023-02-12T04:38:09.897Z,8.98
2023-02-12T04:40:40.920Z,8.97
2023-02-12T04:43:09.184Z,9.01
2023-02-12T04:45:38.791Z,9.08
2023-02-12T04:48:07.822Z,9.23
2023-02-12T04:50:42.907Z,9.19
2023-02-12T04:53:12.017Z,9.24
2023-02-12T04:55:40.652Z,9.16
2023-02-12T04:58:08.876Z,9.20
2023-02-12T05:00:37.307Z,9.26
2023-02-12T05:03:05.798Z,9.26
2023-02-12T05:05:34.598Z,9.27
2023-02-12T05:08:04.440Z,9.29
2023-02-12T05:10:32.796Z,9.35
2023-02-12T05:13:01.161Z,9.37
2023-02-12T05:15:29.539Z,9.30
2023-02-12T05:17:57.703Z,9.38
2023-02-12T05:20:25.898Z,9.46
2023-02-12T05:22:54.717Z,9.48
2023-02-12T05:25:24.376Z,9.45
2023-02-12T05:27:52.979Z,9.35
2023-02-12T05:30:21.275Z,9.41
2023-02-12T05:32:49.700Z,9.40
2023-02-12T05:35:17.958Z,9.42
2023-02-12T05:37:46.284Z,9.39
2023-02-12T05:40:15.562Z,9.38
2023-02-12T05:42:45.246Z,9.44
2023-02-12T05:45:13.783Z,9.38
2023-02-12T05:47:43.458Z,9.35
2023-02-12T05:50:12.305Z,9.35
2023-02-12T05:52:40.616Z,9.35
2023-02-12T05:55:09.609Z,9.30
2023-02-12T05:57:37.710Z,9.36
2023-02-12T06:00:10.524Z,9.26
2023-02-12T06:02:38.770Z,9.39
2023-02-12T06:05:07.642Z,9.49
2023-02-12T06:07:35.869Z,9.56
2023-02-12T06:10:04.262Z,9.51
2023-02-12T06:12:32.661Z,9.56
2023-02-12T06:15:00.922Z,9.59
2023-02-12T06:17:30.355Z,9.61
2023-02-12T06:19:58.593Z,9.63
2023-02-12T06:22:27.064Z,9.64
2023-02-12T06:24:55.188Z,9.70
2023-02-12T06:27:23.406Z,9.64
2023-02-12T06:29:51.595Z,9.62
2023-02-12T06:32:20.006Z,9.61
2023-02-12T06:34:50.188Z,9.58
2023-02-12T06:37:18.754Z,9.57
2023-02-12T06:39:47.416Z,9.54
2023-02-12T06:42:15.524Z,9.53
2023-02-12T06:44:43.881Z,9.55
2023-02-12T06:47:11.901Z,9.29
2023-02-12T06:49:40.165Z,9.42
2023-02-12T06:52:09.670Z,9.42
2023-02-12T06:54:37.983Z,9.42
2023-02-12T06:57:06.183Z,9.48
2023-02-12T06:59:34.411Z,9.48
2023-02-12T07:02:02.559Z,9.47
2023-02-12T07:04:30.827Z,9.52
2023-02-12T07:06:59.129Z,9.52
2023-02-12T07:09:28.796Z,9.62
2023-02-12T07:12:01.081Z,9.36
2023-02-12T07:14:29.278Z,9.43
2023-02-12T07:16:57.576Z,9.51
2023-02-12T07:19:25.973Z,9.46
2023-02-12T07:21:54.147Z,9.49
2023-02-12T07:24:22.280Z,9.42
2023-02-12T07:26:52.089Z,9.43
2023-02-12T07:29:20.362Z,9.47
2023-02-12T07:31:48.724Z,9.39
2023-02-12T07:34:16.910Z,9.34
2023-02-12T07:36:45.090Z,9.36
2023-02-12T07:39:13.902Z,9.40
2023-02-12T07:41:42.533Z,9.49
2023-02-12T07:44:13.626Z,9.48
2023-02-12T07:46:45.677Z,9.52
2023-02-12T07:49:18.374Z,9.54
2023-02-12T07:51:46.902Z,9.63
2023-02-12T07:54:15.880Z,9.60
2023-02-12T07:56:47.103Z,9.52
2023-02-12T07:59:18.879Z,9.27
2023-02-12T08:01:49.085Z,9.42
2023-02-12T08:04:19.025Z,9.52
2023-02-12T08:06:48.881Z,9.49
2023-02-12T08:09:19.963Z,9.56
2023-02-12T08:11:49.047Z,9.59
2023-02-12T08:14:21.492Z,9.68
2023-02-12T08:16:53.427Z,9.59
2023-02-12T08:19:26.443Z,9.75
2023-02-12T08:21:57.408Z,9.79
2023-02-12T08:24:26.285Z,9.79
2023-02-12T08:26:55.001Z,9.83
2023-02-12T08:29:27.197Z,9.92
2023-02-12T08:31:58.282Z,9.96
2023-02-12T08:34:28.901Z,10.04
2023-02-12T08:36:58.809Z,9.77
2023-02-12T08:39:38.928Z,9.87
2023-02-12T08:42:08.063Z,9.93
2023-02-12T08:44:41.294Z,9.86
2023-02-12T08:47:17.863Z,10.01
2023-02-12T08:49:47.485Z,9.86
2023-02-12T08:52:25.933Z,10.01
2023-02-12T08:54:54.459Z,10.17
2023-02-12T08:57:22.528Z,10.12
2023-02-12T08:59:52.162Z,10.14
2023-02-12T09:02:20.840Z,10.16
2023-02-12T09:04:52.007Z,10.16
2023-02-12T09:07:20.839Z,10.23
2023-02-12T09:09:49.265Z,10.32
2023-02-12T09:12:21.320Z,10.19
2023-02-12T09:14:52.035Z,10.13
2023-02-12T09:17:27.478Z,10.27
2023-02-12T09:19:57.910Z,10.29
2023-02-12T09:22:27.234Z,10.26
2023-02-12T09:24:59.878Z,10.09
2023-02-12T09:27:33.534Z,9.99
2023-02-12T09:30:03.796Z,10.17
2023-02-12T09:32:32.454Z,10.22
2023-02-12T09:35:01.283Z,10.15
2023-02-12T09:37:29.810Z,10.30
2023-02-12T09:39:58.002Z,10.44
2023-02-12T09:42:40.045Z,10.51
2023-02-12T09:45:17.504Z,10.26
2023-02-12T09:47:52.566Z,10.36
2023-02-12T09:50:37.523Z,10.36
2023-02-12T09:53:07.723Z,10.45
2023-02-12T09:55:36.938Z,10.34
2023-02-12T09:58:15.275Z,10.51
2023-02-12T10:00:45.283Z,10.61
2023-02-12T10:03:16.662Z,10.68
2023-02-12T10:05:49.507Z,10.71
2023-02-12T10:08:42.517Z,10.65
2023-02-12T10:11:34.525Z,10.65
2023-02-12T10:14:18.970Z,10.64
2023-02-12T10:17:01.202Z,10.63
2023-02-12T10:19:51.916Z,10.79
2023-02-12T10:22:30.679Z,10.90
2023-02-12T10:25:07.714Z,10.86
2023-02-12T10:27:41.034Z,10.81
2023-02-12T10:30:21.096Z,10.68
2023-02-12T10:32:54.686Z,10.77
2023-02-12T10:35:25.150Z,10.70
2023-02-12T10:37:59.202Z,10.97
2023-02-12T10:40:32.888Z,11.10
2023-02-12T10:43:03.201Z,11.11
2023-02-12T10:45:34.333Z,11.03
2023-02-12T10:48:12.025Z,11.23
2023-02-12T10:51:04.755Z,11.21
2023-02-12T10:53:35.385Z,11.00
2023-02-12T10:56:19.027Z,11.11
2023-02-12T10:58:56.440Z,11.21
2023-02-12T11:01:28.576Z,11.27
2023-02-12T11:03:59.828Z,11.14
2023-02-12T11:06:29.686Z,10.86
2023-02-12T11:08:59.008Z,10.90
2023-02-12T11:11:31.522Z,11.14
2023-02-12T11:14:04.359Z,11.25
2023-02-12T11:16:38.410Z,11.12
2023-02-12T11:19:10.470Z,11.07
2023-02-12T11:21:39.664Z,11.32
2023-02-12T11:24:39.489Z,11.28
2023-02-12T11:27:23.348Z,11.54
2023-02-12T11:30:13.730Z,11.43
2023-02-12T11:32:43.616Z,11.47
2023-02-12T11:35:23.888Z,11.63
2023-02-12T11:37:57.769Z,11.67
2023-02-12T11:40:28.752Z,11.24
2023-02-12T11:42:59.788Z,11.24
2023-02-12T11:45:33.225Z,11.16
2023-02-12T11:48:02.575Z,11.38
2023-02-12T11:50:34.503Z,11.35
2023-02-12T11:53:09.642Z,11.14
2023-02-12T11:55:40.961Z,11.24
2023-02-12T11:58:17.702Z,11.04
2023-02-12T12:00:52.201Z,11.31
2023-02-12T12:03:27.200Z,11.10
2023-02-12T12:06:07.138Z,11.38
2023-02-12T12:08:41.999Z,11.38
2023-02-12T12:11:15.765Z,11.23
2023-02-12T12:13:50.033Z,11.31
2023-02-12T12:16:43.601Z,11.45
2023-02-12T12:19:35.206Z,11.37
2023-02-12T12:22:19.174Z,11.26
2023-02-12T12:24:57.805Z,11.30
2023-02-12T12:27:50.666Z,11.44
2023-02-12T12:30:24.573Z,11.16
2023-02-12T12:32:55.934Z,11.42
2023-02-12T12:35:33.118Z,11.29
2023-02-12T12:38:11.325Z,11.30
2023-02-12T12:40:56.473Z,11.22
2023-02-12T12:43:35.405Z,11.18
2023-02-12T12:46:19.073Z,11.39
2023-02-12T12:49:05.837Z,11.35
2023-02-12T12:51:51.002Z,11.46
2023-02-12T12:54:37.194Z,11.47
2023-02-12T12:57:17.484Z,11.45
2023-02-12T13:00:01.211Z,11.41
2023-02-12T13:03:05.472Z,11.34
2023-02-12T13:05:55.926Z,11.65
2023-02-12T13:09:06.742Z,11.75
2023-02-12T13:11:45.575Z,11.43
2023-02-12T13:14:29.001Z,11.63
2023-02-12T13:17:04.085Z,11.71
2023-02-12T13:19:46.672Z,11.43
2023-02-12T13:22:21.349Z,11.41
2023-02-12T13:24:54.669Z,11.83
2023-02-12T13:27:33.322Z,11.69
2023-02-12T13:30:07.683Z,11.65
2023-02-12T13:32:40.730Z,11.60
2023-02-12T13:35:18.970Z,11.69
2023-02-12T13:37:50.306Z,11.67
2023-02-12T13:40:20.504Z,11.53
2023-02-12T13:42:57.530Z,11.67
2023-02-12T13:45:39.819Z,11.36
2023-02-12T13:48:29.300Z,11.64
2023-02-12T13:51:09.055Z,11.46
2023-02-12T13:54:03.576Z,11.46
2023-02-12T13:56:50.815Z,11.64
2023-02-12T13:59:56.894Z,11.48
2023-02-12T14:02:47.755Z,11.45
2023-02-12T14:05:31.424Z,11.27
2023-02-12T14:08:04.187Z,11.46
2023-02-12T14:10:35.484Z,11.31
2023-02-12T14:13:23.100Z,11.46
2023-02-12T14:15:55.600Z,11.43
2023-02-12T14:18:33.764Z,11.65
2023-02-12T14:21:43.835Z,11.55
2023-02-12T14:24:53.247Z,11.51
2023-02-12T14:27:44.347Z,11.36
2023-02-12T14:30:30.622Z,11.40
2023-02-12T14:33:25.783Z,11.46
2023-02-12T14:36:17.595Z,11.61
2023-02-12T14:39:04.303Z,11.16
2023-02-12T14:41:38.081Z,11.22
2023-02-12T14:44:46.059Z,11.37
2023-02-12T14:47:56.319Z,11.46
2023-02-12T14:50:37.318Z,11.44
2023-02-12T14:53:23.317Z,11.59
2023-02-12T14:55:53.341Z,11.40
2023-02-12T14:58:24.601Z,11.37
2023-02-12T15:00:56.190Z,11.28
2023-02-12T15:03:30.381Z,11.34
2023-02-12T15:06:09.168Z,11.26
2023-02-12T15:08:47.031Z,11.23
2023-02-12T15:11:23.564Z,11.25
2023-02-12T15:13:57.017Z,11.14
2023-02-12T15:16:37.053Z,11.02
2023-02-12T15:19:19.847Z,11.06
2023-02-12T15:21:50.125Z,11.07
2023-02-12T15:24:24.101Z,10.98
2023-02-12T15:26:56.823Z,11.03
2023-02-12T15:29:29.269Z,10.82
2023-02-12T15:31:59.790Z,10.87
2023-02-12T15:34:31.793Z,10.85
2023-02-12T15:37:02.719Z,10.86
2023-02-12T15:39:40.873Z,10.72
2023-02-12T15:42:28.708Z,10.81
2023-02-12T15:45:07.642Z,10.83
2023-02-12T15:47:35.766Z,10.76
2023-02-12T15:50:04.177Z,10.77
2023-02-12T15:52:41.493Z,10.76
2023-02-12T15:55:22.775Z,10.60
2023-02-12T15:57:52.632Z,10.68
2023-02-12T16:00:32.592Z,10.53
2023-02-12T16:03:08.297Z,10.44
2023-02-12T16:05:37.131Z,10.46
2023-02-12T16:08:07.035Z,10.52
2023-02-12T16:10:36.171Z,10.40
2023-02-12T16:13:06.234Z,10.36
2023-02-12T16:15:35.630Z,10.30
2023-02-12T16:18:07.310Z,10.20
2023-02-12T16:20:37.739Z,10.29
2023-02-12T16:23:09.679Z,10.18
2023-02-12T16:25:39.135Z,10.14
2023-02-12T16:28:09.303Z,10.22
2023-02-12T16:30:39.226Z,10.18
2023-02-12T16:33:34.480Z,10.24
2023-02-12T16:36:04.178Z,10.13
2023-02-12T16:38:45.796Z,9.99
2023-02-12T16:41:27.518Z,10.19
2023-02-12T16:44:29.556Z,10.21
2023-02-12T16:47:01.445Z,10.08
2023-02-12T16:49:29.795Z,10.16
2023-02-12T16:52:30.665Z,10.25
2023-02-12T16:55:01.264Z,10.24
2023-02-12T16:57:31.241Z,10.08
2023-02-12T16:59:59.525Z,10.19
2023-02-12T17:02:27.707Z,10.27
2023-02-12T17:05:01.144Z,10.25
2023-02-12T17:07:31.176Z,10.15
2023-02-12T17:10:01.151Z,10.07
2023-02-12T17:12:29.835Z,10.05
2023-02-12T17:14:58.401Z,10.07
2023-02-12T17:17:27.941Z,10.06
2023-02-12T17:19:56.320Z,9.93
2023-02-12T17:22:27.188Z,10.02
2023-02-12T17:24:55.751Z,9.97
2023-02-12T17:27:25.426Z,10.00
2023-02-12T17:29:53.549Z,10.05
2023-02-12T17:32:24.502Z,10.10
2023-02-12T17:34:53.766Z,10.14
2023-02-12T17:37:22.407Z,10.01
2023-02-12T17:39:50.624Z,10.03
2023-02-12T17:42:19.247Z,10.16
2023-02-12T17:44:48.994Z,10.12
2023-02-12T17:47:17.541Z,10.15
2023-02-12T17:49:46.009Z,9.79
2023-02-12T17:52:14.316Z,9.72
2023-02-12T17:54:45.815Z,9.89
2023-02-12T17:57:15.160Z,10.04
2023-02-12T17:59:43.636Z,9.77
2023-02-12T18:02:13.790Z,9.81
2023-02-12T18:04:42.081Z,9.89
2023-02-12T18:07:10.383Z,9.90
2023-02-12T18:09:38.868Z,9.99
2023-02-12T18:12:07.796Z,9.91
2023-02-12T18:14:36.152Z,9.83
2023-02-12T18:17:04.391Z,10.12
2023-02-12T18:19:34.147Z,10.17
2023-02-12T18:22:02.429Z,10.13
2023-02-12T18:24:33.384Z,10.15
2023-02-12T18:27:01.579Z,10.16
2023-02-12T18:29:30.216Z,10.16
2023-02-12T18:32:02.114Z,9.97
2023-02-12T18:34:30.604Z,10.15
2023-02-12T18:37:01.012Z,10.09
2023-02-12T18:39:29.209Z,9.99
2023-02-12T18:41:58.483Z,10.02
2023-02-12T18:44:27.069Z,10.00
2023-02-12T18:46:56.712Z,10.10
2023-02-12T18:49:25.215Z,10.06
2023-02-12T18:51:53.476Z,10.01
2023-02-12T18:54:23.096Z,10.09
2023-02-12T18:56:53.508Z,10.09
2023-02-12T18:59:24.773Z,10.02
2023-02-12T19:01:54.391Z,9.99
2023-02-12T19:04:26.759Z,9.95
2023-02-12T19:06:56.649Z,10.06
2023-02-12T19:09:29.848Z,10.00
2023-02-12T19:12:00.377Z,9.91
2023-02-12T19:14:30.151Z,10.09
2023-02-12T19:17:06.865Z,10.07
2023-02-12T19:19:35.418Z,10.10
2023-02-12T19:22:04.047Z,10.04
2023-02-12T19:24:45.917Z,9.97
2023-02-12T19:27:18.657Z,9.99
2023-02-12T19:29:46.878Z,9.95
2023-02-12T19:32:15.401Z,10.02
2023-02-12T19:34:44.060Z,9.91
2023-02-12T19:37:13.995Z,10.06
2023-02-12T19:39:44.335Z,9.91
2023-02-12T19:42:17.827Z,9.93
2023-02-12T19:44:46.795Z,9.92
2023-02-12T19:47:16.043Z,9.96
2023-02-12T19:49:47.040Z,9.93
2023-02-12T19:52:15.409Z,9.94
2023-02-12T19:54:49.417Z,9.89
2023-02-12T19:57:17.726Z,9.89
2023-02-12T19:59:46.566Z,9.89
2023-02-12T20:02:15.352Z,9.90
2023-02-12T20:04:43.554Z,9.96
2023-02-12T20:07:12.163Z,9.95
2023-02-12T20:09:40.554Z,9.87
2023-02-12T20:12:10.253Z,9.94
2023-02-12T20:14:38.359Z,10.04
2023-02-12T20:17:07.026Z,9.94
2023-02-12T20:19:35.275Z,10.08
2023-02-12T20:22:04.640Z,10.08
2023-02-12T20:24:35.192Z,10.00
2023-02-12T20:27:04.726Z,10.10
2023-02-12T20:29:34.291Z,10.04
2023-02-12T20:32:02.467Z,10.13
2023-02-12T20:34:34.672Z,9.94
2023-02-12T20:37:08.120Z,9.96
2023-02-12T20:39:39.209Z,9.87
2023-02-12T20:42:07.499Z,9.93
2023-02-12T20:44:38.548Z,9.99
2023-02-12T20:47:08.138Z,10.09
2023-02-12T20:49:36.387Z,10.06
2023-02-12T20:52:05.120Z,10.05
2023-02-12T20:54:33.197Z,9.95
2023-02-12T20:57:06.550Z,9.81
2023-02-12T20:59:36.136Z,9.84
2023-02-12T21:02:04.342Z,9.93
2023-02-12T21:04:32.589Z,9.81
2023-02-12T21:07:01.183Z,9.71
2023-02-12T21:09:29.403Z,9.73
2023-02-12T21:11:59.431Z,9.70
2023-02-12T21:14:27.803Z,9.69
2023-02-12T21:16:57.933Z,9.64
2023-02-12T21:19:26.751Z,9.67
2023-02-12T21:21:55.666Z,9.55
2023-02-12T21:24:26.058Z,9.49
2023-02-12T21:26:55.553Z,9.47
2023-02-12T21:29:26.076Z,9.49
2023-02-12T21:31:55.260Z,9.61
2023-02-12T21:34:25.290Z,9.45
2023-02-12T21:36:55.301Z,9.45
2023-02-12T21:39:29.156Z,9.40
2023-02-12T21:42:00.331Z,9.46
2023-02-12T21:44:28.725Z,9.50
2023-02-12T21:46:57.789Z,9.51
2023-02-12T21:49:28.646Z,9.51
2023-02-12T21:51:59.080Z,9.59
2023-02-12T21:54:29.009Z,9.40
2023-02-12T21:56:58.151Z,9.54
2023-02-12T21:59:26.854Z,9.46
2023-02-12T22:01:58.466Z,9.45
2023-02-12T22:04:29.065Z,9.36
2023-02-12T22:06:58.400Z,9.33
2023-02-12T22:09:26.506Z,9.36
2023-02-12T22:11:54.806Z,9.46
2023-02-12T22:14:24.267Z,9.30
2023-02-12T22:16:53.192Z,9.38
2023-02-12T22:19:21.621Z,9.47
2023-02-12T22:21:52.751Z,9.38
2023-02-12T22:24:22.228Z,9.52
2023-02-12T22:26:50.601Z,9.54
2023-02-12T22:29:18.947Z,9.51
2023-02-12T22:31:48.217Z,9.41
2023-02-12T22:34:19.165Z,9.45
2023-02-12T22:36:49.637Z,9.43
2023-02-12T22:39:19.388Z,9.47
2023-02-12T22:41:47.677Z,9.46
2023-02-12T22:44:18.390Z,9.59
2023-02-12T22:46:48.599Z,9.51
2023-02-12T22:49:17.660Z,9.56
2023-02-12T22:51:45.828Z,9.63
2023-02-12T22:54:16.099Z,9.56
2023-02-12T22:56:46.632Z,9.39
2023-02-12T22:59:15.013Z,9.40
2023-02-12T23:01:44.171Z,9.43
2023-02-12T23:04:16.354Z,9.49
2023-02-12T23:06:45.016Z,9.36
2023-02-12T23:09:17.880Z,9.41
2023-02-12T23:11:48.655Z,9.51
2023-02-12T23:14:16.955Z,9.44
2023-02-12T23:16:45.600Z,9.41
2023-02-12T23:19:14.097Z,9.35
2023-02-12T23:21:42.800Z,9.42
2023-02-12T23:24:14.353Z,9.31
2023-02-12T23:26:42.525Z,9.44
2023-02-12T23:29:12.203Z,9.46
2023-02-12T23:31:40.672Z,9.47
2023-02-12T23:34:09.161Z,9.31
2023-02-12T23:36:37.207Z,9.52
2023-02-12T23:39:06.341Z,9.39
2023-02-12T23:41:34.790Z,9.45
2023-02-12T23:44:02.939Z,9.43
2023-02-12T23:46:32.572Z,9.45
2023-02-12T23:49:00.705Z,9.44
2023-02-12T23:51:28.950Z,9.46
2023-02-12T23:53:58.009Z,9.38
2023-02-12T23:56:26.859Z,9.34
2023-02-12T23:58:57.397Z,9.38
